sensor_id;sensor_type;location;lat;lon;timestamp;P1;durP1;ratioP1;P2;durP2;ratioP2
67164;SDS011;54093;50.014;19.984;2023-02-01T00:00:25;1.92;;;1.77;;
67164;SDS011;54093;50.014;19.984;2023-02-01T00:10:06;2.20;;;1.98;;
67164;SDS011;54093;50.014;19.984;2023-02-01T00:19:28;1.40;;;1.40;;
67164;SDS011;54093;50.014;19.984;2023-02-01T00:28:49;2.25;;;2.00;;
67164;SDS011;54093;50.014;19.984;2023-02-01T00:38:10;3.55;;;3.28;;
67164;SDS011;54093;50.014;19.984;2023-02-01T00:47:31;3.13;;;1.58;;
67164;SDS011;54093;50.014;19.984;2023-02-01T00:56:52;1.58;;;1.52;;
67164;SDS011;54093;50.014;19.984;2023-02-01T01:06:17;2.10;;;2.00;;
67164;SDS011;54093;50.014;19.984;2023-02-01T01:15:41;1.73;;;1.73;;
67164;SDS011;54093;50.014;19.984;2023-02-01T01:25:02;3.53;;;2.13;;
67164;SDS011;54093;50.014;19.984;2023-02-01T01:34:23;2.15;;;2.05;;
67164;SDS011;54093;50.014;19.984;2023-02-01T01:53:18;2.42;;;2.25;;
67164;SDS011;54093;50.014;19.984;2023-02-01T02:12:04;3.47;;;2.70;;
67164;SDS011;54093;50.014;19.984;2023-02-01T02:41:10;1.25;;;1.15;;
67164;SDS011;54093;50.014;19.984;2023-02-01T02:51:04;1.90;;;0.95;;
67164;SDS011;54093;50.014;19.984;2023-02-01T03:00:45;2.67;;;1.08;;
67164;SDS011;54093;50.014;19.984;2023-02-01T03:20:10;1.40;;;1.27;;
67164;SDS011;54093;50.014;19.984;2023-02-01T03:29:38;0.80;;;0.80;;
67164;SDS011;54093;50.014;19.984;2023-02-01T03:48:56;1.20;;;1.08;;
67164;SDS011;54093;50.014;19.984;2023-02-01T03:58:21;0.93;;;0.85;;
67164;SDS011;54093;50.014;19.984;2023-02-01T04:07:43;3.10;;;1.73;;
67164;SDS011;54093;50.014;19.984;2023-02-01T04:17:04;4.63;;;1.05;;
67164;SDS011;54093;50.014;19.984;2023-02-01T04:26:25;1.00;;;0.98;;
67164;SDS011;54093;50.014;19.984;2023-02-01T04:35:46;1.50;;;1.48;;
67164;SDS011;54093;50.014;19.984;2023-02-01T04:45:08;3.28;;;1.73;;
67164;SDS011;54093;50.014;19.984;2023-02-01T04:54:29;1.90;;;1.40;;
67164;SDS011;54093;50.014;19.984;2023-02-01T05:03:50;1.20;;;1.10;;
67164;SDS011;54093;50.014;19.984;2023-02-01T05:13:11;1.30;;;1.30;;
67164;SDS011;54093;50.014;19.984;2023-02-01T05:22:51;1.50;;;1.40;;
67164;SDS011;54093;50.014;19.984;2023-02-01T05:32:12;1.92;;;1.83;;
67164;SDS011;54093;50.014;19.984;2023-02-01T05:41:33;2.25;;;1.30;;
67164;SDS011;54093;50.014;19.984;2023-02-01T05:50:54;1.75;;;1.67;;
67164;SDS011;54093;50.014;19.984;2023-02-01T06:00:15;3.53;;;2.13;;
67164;SDS011;54093;50.014;19.984;2023-02-01T06:09:36;2.10;;;2.00;;
67164;SDS011;54093;50.014;19.984;2023-02-01T06:18:57;2.15;;;1.27;;
67164;SDS011;54093;50.014;19.984;2023-02-01T06:28:18;5.78;;;2.30;;
67164;SDS011;54093;50.014;19.984;2023-02-01T06:37:40;1.67;;;1.58;;
67164;SDS011;54093;50.014;19.984;2023-02-01T06:47:00;1.25;;;0.93;;
67164;SDS011;54093;50.014;19.984;2023-02-01T06:56:23;2.50;;;1.55;;
67164;SDS011;54093;50.014;19.984;2023-02-01T07:05:44;1.20;;;1.10;;
67164;SDS011;54093;50.014;19.984;2023-02-01T07:15:05;1.20;;;1.20;;
67164;SDS011;54093;50.014;19.984;2023-02-01T07:24:27;1.08;;;1.08;;
67164;SDS011;54093;50.014;19.984;2023-02-01T07:33:48;6.55;;;1.95;;
67164;SDS011;54093;50.014;19.984;2023-02-01T07:43:12;3.17;;;1.52;;
67164;SDS011;54093;50.014;19.984;2023-02-01T07:52:33;3.55;;;1.40;;
67164;SDS011;54093;50.014;19.984;2023-02-01T08:01:54;3.45;;;1.38;;
67164;SDS011;54093;50.014;19.984;2023-02-01T08:11:15;3.00;;;1.63;;
67164;SDS011;54093;50.014;19.984;2023-02-01T08:20:37;2.03;;;1.92;;
67164;SDS011;54093;50.014;19.984;2023-02-01T08:30:01;6.50;;;1.65;;
67164;SDS011;54093;50.014;19.984;2023-02-01T08:39:22;5.32;;;2.35;;
67164;SDS011;54093;50.014;19.984;2023-02-01T08:48:43;1.17;;;1.13;;
67164;SDS011;54093;50.014;19.984;2023-02-01T08:58:06;2.85;;;1.23;;
67164;SDS011;54093;50.014;19.984;2023-02-01T09:07:27;3.28;;;2.28;;
67164;SDS011;54093;50.014;19.984;2023-02-01T09:16:48;4.07;;;1.85;;
67164;SDS011;54093;50.014;19.984;2023-02-01T09:26:09;0.77;;;0.77;;
67164;SDS011;54093;50.014;19.984;2023-02-01T09:35:32;1.33;;;1.20;;
67164;SDS011;54093;50.014;19.984;2023-02-01T09:54:40;2.58;;;2.25;;
67164;SDS011;54093;50.014;19.984;2023-02-01T10:04:09;2.58;;;1.30;;
67164;SDS011;54093;50.014;19.984;2023-02-01T10:23:08;1.63;;;1.17;;
67164;SDS011;54093;50.014;19.984;2023-02-01T10:32:42;3.53;;;2.20;;
67164;SDS011;54093;50.014;19.984;2023-02-01T10:42:03;1.27;;;1.27;;
67164;SDS011;54093;50.014;19.984;2023-02-01T10:51:26;4.22;;;1.60;;
67164;SDS011;54093;50.014;19.984;2023-02-01T11:00:56;2.22;;;2.13;;
67164;SDS011;54093;50.014;19.984;2023-02-01T11:19:58;2.75;;;2.10;;
67164;SDS011;54093;50.014;19.984;2023-02-01T11:29:20;3.22;;;2.10;;
67164;SDS011;54093;50.014;19.984;2023-02-01T11:38:53;2.85;;;1.60;;
67164;SDS011;54093;50.014;19.984;2023-02-01T11:48:30;2.15;;;2.03;;
67164;SDS011;54093;50.014;19.984;2023-02-01T12:36:11;5.57;;;2.63;;
67164;SDS011;54093;50.014;19.984;2023-02-01T12:45:58;2.63;;;2.42;;
67164;SDS011;54093;50.014;19.984;2023-02-01T12:55:26;1.67;;;1.58;;
67164;SDS011;54093;50.014;19.984;2023-02-01T13:05:11;2.15;;;1.95;;
67164;SDS011;54093;50.014;19.984;2023-02-01T13:24:58;6.18;;;3.42;;
67164;SDS011;54093;50.014;19.984;2023-02-01T13:34:15;2.38;;;2.17;;
67164;SDS011;54093;50.014;19.984;2023-02-01T13:44:15;2.17;;;1.98;;
67164;SDS011;54093;50.014;19.984;2023-02-01T13:53:48;3.60;;;2.13;;
67164;SDS011;54093;50.014;19.984;2023-02-01T14:03:19;4.40;;;2.05;;
67164;SDS011;54093;50.014;19.984;2023-02-01T14:12:44;2.70;;;2.10;;
67164;SDS011;54093;50.014;19.984;2023-02-01T14:31:47;1.93;;;1.37;;
67164;SDS011;54093;50.014;19.984;2023-02-01T14:41:28;2.60;;;1.50;;
67164;SDS011;54093;50.014;19.984;2023-02-01T14:50:53;1.35;;;1.25;;
67164;SDS011;54093;50.014;19.984;2023-02-01T15:00:20;1.23;;;1.17;;
67164;SDS011;54093;50.014;19.984;2023-02-01T15:09:44;1.53;;;1.43;;
67164;SDS011;54093;50.014;19.984;2023-02-01T15:19:09;1.52;;;1.42;;
67164;SDS011;54093;50.014;19.984;2023-02-01T15:28:32;1.63;;;1.52;;
67164;SDS011;54093;50.014;19.984;2023-02-01T15:37:53;2.30;;;2.20;;
67164;SDS011;54093;50.014;19.984;2023-02-01T15:47:48;2.42;;;2.22;;
67164;SDS011;54093;50.014;19.984;2023-02-01T15:57:10;1.65;;;1.55;;
67164;SDS011;54093;50.014;19.984;2023-02-01T16:06:31;3.00;;;2.67;;
67164;SDS011;54093;50.014;19.984;2023-02-01T16:15:54;2.63;;;2.53;;
67164;SDS011;54093;50.014;19.984;2023-02-01T16:25:15;3.30;;;2.45;;
67164;SDS011;54093;50.014;19.984;2023-02-01T16:34:37;3.83;;;3.22;;
67164;SDS011;54093;50.014;19.984;2023-02-01T16:43:58;3.20;;;3.00;;
67164;SDS011;54093;50.014;19.984;2023-02-01T16:53:19;4.35;;;3.15;;
67164;SDS011;54093;50.014;19.984;2023-02-01T17:02:41;4.10;;;3.70;;
67164;SDS011;54093;50.014;19.984;2023-02-01T17:12:03;3.45;;;3.08;;
67164;SDS011;54093;50.014;19.984;2023-02-01T17:21:26;4.47;;;4.07;;
67164;SDS011;54093;50.014;19.984;2023-02-01T17:30:49;7.15;;;3.45;;
67164;SDS011;54093;50.014;19.984;2023-02-01T17:40:11;6.82;;;3.58;;
67164;SDS011;54093;50.014;19.984;2023-02-01T17:49:32;5.78;;;4.05;;
67164;SDS011;54093;50.014;19.984;2023-02-01T17:58:55;11.00;;;3.70;;
67164;SDS011;54093;50.014;19.984;2023-02-01T18:08:16;3.67;;;3.17;;
67164;SDS011;54093;50.014;19.984;2023-02-01T18:17:37;4.60;;;4.20;;
67164;SDS011;54093;50.014;19.984;2023-02-01T18:26:59;4.93;;;3.92;;
67164;SDS011;54093;50.014;19.984;2023-02-01T18:36:20;4.05;;;3.58;;
67164;SDS011;54093;50.014;19.984;2023-02-01T18:45:42;6.60;;;3.45;;
67164;SDS011;54093;50.014;19.984;2023-02-01T18:55:04;4.97;;;4.32;;
67164;SDS011;54093;50.014;19.984;2023-02-01T19:04:26;4.93;;;4.10;;
67164;SDS011;54093;50.014;19.984;2023-02-01T19:13:48;6.80;;;3.25;;
67164;SDS011;54093;50.014;19.984;2023-02-01T19:23:11;5.60;;;4.45;;
67164;SDS011;54093;50.014;19.984;2023-02-01T19:32:33;5.15;;;3.42;;
67164;SDS011;54093;50.014;19.984;2023-02-01T19:41:54;5.75;;;3.67;;
67164;SDS011;54093;50.014;19.984;2023-02-01T19:51:18;5.03;;;3.70;;
67164;SDS011;54093;50.014;19.984;2023-02-01T20:00:39;4.95;;;4.18;;
67164;SDS011;54093;50.014;19.984;2023-02-01T20:10:01;7.65;;;5.05;;
67164;SDS011;54093;50.014;19.984;2023-02-01T20:19:30;3.67;;;3.38;;
67164;SDS011;54093;50.014;19.984;2023-02-01T20:28:52;4.63;;;4.22;;
67164;SDS011;54093;50.014;19.984;2023-02-01T20:38:14;3.25;;;2.75;;
67164;SDS011;54093;50.014;19.984;2023-02-01T20:47:35;3.90;;;3.60;;
67164;SDS011;54093;50.014;19.984;2023-02-01T20:56:56;3.05;;;2.85;;
67164;SDS011;54093;50.014;19.984;2023-02-01T21:06:18;5.75;;;2.95;;
67164;SDS011;54093;50.014;19.984;2023-02-01T21:15:42;6.30;;;2.97;;
67164;SDS011;54093;50.014;19.984;2023-02-01T21:25:06;6.65;;;2.58;;
67164;SDS011;54093;50.014;19.984;2023-02-01T21:34:27;2.85;;;2.60;;
67164;SDS011;54093;50.014;19.984;2023-02-01T21:43:49;4.30;;;3.08;;
67164;SDS011;54093;50.014;19.984;2023-02-01T21:53:11;4.25;;;2.50;;
67164;SDS011;54093;50.014;19.984;2023-02-01T22:02:32;1.88;;;1.77;;
67164;SDS011;54093;50.014;19.984;2023-02-01T22:11:53;2.13;;;1.95;;
67164;SDS011;54093;50.014;19.984;2023-02-01T22:21:15;2.35;;;2.15;;
67164;SDS011;54093;50.014;19.984;2023-02-01T22:30:37;1.75;;;1.65;;
67164;SDS011;54093;50.014;19.984;2023-02-01T22:39:58;3.75;;;2.60;;
67164;SDS011;54093;50.014;19.984;2023-02-01T22:49:19;1.65;;;1.65;;
67164;SDS011;54093;50.014;19.984;2023-02-01T22:58:40;2.90;;;2.03;;
67164;SDS011;54093;50.014;19.984;2023-02-01T23:08:01;2.05;;;1.95;;
67164;SDS011;54093;50.014;19.984;2023-02-01T23:17:22;2.05;;;1.95;;
67164;SDS011;54093;50.014;19.984;2023-02-01T23:26:43;1.58;;;1.48;;
67164;SDS011;54093;50.014;19.984;2023-02-01T23:36:05;2.08;;;1.98;;
67164;SDS011;54093;50.014;19.984;2023-02-01T23:45:28;3.70;;;1.55;;
67164;SDS011;54093;50.014;19.984;2023-02-01T23:54:49;2.08;;;1.98;;
